S 386 Casilo — OZZP — position and weather

sailwx.info

Track history (hours):
 
Tides and Currents Weather Stations Pressure Air Temp Water Temp Dewpoint Dewpoint Depression Visibility Wind Speed Wind Dir Waves Ship Positions

S 386 Casilo

Last reported at 2015-Mar-26 10:08 UTC. Time now 2015-Mar-31 23:52 UTC.
Position N 57°56' E 010°53'.

Length 24 m.

Type: Fishing. MMSI: 219948000.

Date/timePositionNaut miles runAvg speedWind from/ knotsBaromVisibWave heightAir tempDewpointWater temp
2015-Mar-26 10:08N 57°56' E 010°53'4 7.9
2015-Mar-26 09:33N 57°60' E 010°57'8 8.1
2015-Mar-26 08:33N 58°07' E 011°03'8 7.7
2015-Mar-26 07:34N 58°14' E 011°09'7 7.2
2015-Mar-26 06:32N 58°21' E 011°14'4 3.7
2015-Mar-26 05:33N 58°21' E 011°07'7 7.3
2015-Mar-26 04:33N 58°24' E 010°55'7 6.8
2015-Mar-26 03:33N 58°28' E 010°44'7 6.7
2015-Mar-26 02:33N 58°32' E 010°33'1 1.1
2015-Mar-26 01:11N 58°32' E 010°31'2 2.2
2015-Mar-26 00:20N 58°30' E 010°33'2 2.2
2015-Mar-25 23:26N 58°29' E 010°35'2 2.2
2015-Mar-25 22:32N 58°27' E 010°37'2 2.2
2015-Mar-25 21:32N 58°25' E 010°39'2 2.1
2015-Mar-25 20:32N 58°23' E 010°39'2 2.2
2015-Mar-25 19:32N 58°21' E 010°40'2 2.1
2015-Mar-25 18:32N 58°19' E 010°40'2 2.0
2015-Mar-25 17:29N 58°17' E 010°40'1 1.5
2015-Mar-25 16:33N 58°18' E 010°38'9 6.8
2015-Mar-25 15:10N 58°25' E 010°27'6 6.3
2015-Mar-25 14:17N 58°29' E 010°20'1 1.7
2015-Mar-25 13:32N 58°28' E 010°22'2 2.0
2015-Mar-25 12:33N 58°27' E 010°23'1 1.4
2015-Mar-25 11:33N 58°25' E 010°24'2 2.1
2015-Mar-25 10:33N 58°23' E 010°25'2 2.2
2015-Mar-25 09:30N 58°21' E 010°25'2 2.2
2015-Mar-25 08:33N 58°19' E 010°25'2 2.1
2015-Mar-25 07:33N 58°17' E 010°23'2 1.8
2015-Mar-25 06:33N 58°16' E 010°20'2 1.8
2015-Mar-25 05:30N 58°15' E 010°16'3 1.9
2015-Mar-25 04:06N 58°14' E 010°12'5 1.9
2015-Mar-25 01:18N 58°12' E 010°03'2 2.0
2015-Mar-25 00:30N 58°11' E 010°00'1 0.5
2015-Mar-24 23:24N 58°11' E 009°59'7 8.7
2015-Mar-24 22:33N 58°16' E 010°09'9 8.7
2015-Mar-24 21:33N 58°23' E 010°19'3 3.3
2015-Mar-24 20:32N 58°26' E 010°23'2 1.9
2015-Mar-24 19:32N 58°24' E 010°24'2 2.1
2015-Mar-24 18:32N 58°22' E 010°24'2 2.1
2015-Mar-24 17:29N 58°20' E 010°23'2 2.0
2015-Mar-24 16:32N 58°18' E 010°23'2 2.0
2015-Mar-24 15:32N 58°17' E 010°20'2 1.9
2015-Mar-24 14:32N 58°16' E 010°17'3 2.0
2015-Mar-24 13:14N 58°14' E 010°13'2 2.1
2015-Mar-24 12:29N 58°14' E 010°10'2 2.1
2015-Mar-24 11:32N 58°13' E 010°07'2 2.1
2015-Mar-24 10:32N 58°12' E 010°03'2 2.1
2015-Mar-24 09:26N 58°11' E 009°59'2 2.1
2015-Mar-24 08:32N 58°10' E 009°56'5 4.9
2015-Mar-24 07:31N 58°15' E 010°00'9 9.2
2015-Mar-24 06:33N 58°23' E 010°07'9 8.9
2015-Mar-24 05:33N 58°31' E 010°13'8 7.5
2015-Mar-24 04:33N 58°38' E 010°14'6 6.0
2015-Mar-24 03:32N 58°43' E 010°06'2 0.6
2015-Mar-23 23:20N 58°44' E 010°10'2 2.0
2015-Mar-23 22:14N 58°42' E 010°13'2 2.0
2015-Mar-23 21:14N 58°41' E 010°16'8 2.1
2015-Mar-23 17:24N 58°34' E 010°23'4 2.1
2015-Mar-23 15:30N 58°30' E 010°26'4 1.9
2015-Mar-23 13:08N 58°26' E 010°22'0 0.8
2015-Mar-23 12:31N 58°26' E 010°21'2 2.0
2015-Mar-23 11:32N 58°24' E 010°22'2 2.1
2015-Mar-23 10:25N 58°21' E 010°23'2 2.0
2015-Mar-23 09:32N 58°20' E 010°23'2 1.9
2015-Mar-23 08:29N 58°18' E 010°22'2 2.0
2015-Mar-23 07:32N 58°17' E 010°19'2 2.1
2015-Mar-23 06:26N 58°15' E 010°15'2 2.1
2015-Mar-23 05:26N 58°14' E 010°12'  
2015-Mar-19 10:22N 57°43' E 010°36'0 0.2
2015-Mar-19 09:28N 57°43' E 010°36'0 0.0
2015-Mar-19 08:13N 57°43' E 010°36'0 0.0
2015-Mar-19 07:22N 57°43' E 010°36'3 1.7
2015-Mar-19 05:33N 57°43' E 010°41'8 8.3
2015-Mar-19 04:33N 57°50' E 010°50'9 8.6
2015-Mar-19 03:33N 57°58' E 010°58'3 2.9
2015-Mar-19 02:31N 58°01' E 010°59'3 2.3
2015-Mar-19 01:19N 58°04' E 010°59'2 2.3
2015-Mar-19 00:31N 58°05' E 010°59'2 2.3
2015-Mar-18 23:31N 58°08' E 010°59'2 2.3
2015-Mar-18 22:28N 58°10' E 010°56'2 2.3
2015-Mar-18 21:31N 58°12' E 010°54'2 2.4
2015-Mar-18 20:31N 58°14' E 010°52'2 2.5
2015-Mar-18 19:31N 58°16' E 010°49'4 3.8
2015-Mar-18 18:33N 58°18' E 010°44'9 8.8
2015-Mar-18 17:33N 58°24' E 010°31'7 6.6
2015-Mar-18 16:28N 58°29' E 010°22'1 1.3
2015-Mar-18 15:31N 58°28' E 010°23'2 2.1
2015-Mar-18 14:31N 58°26' E 010°24'3 2.1
2015-Mar-18 13:19N 58°24' E 010°25'2 2.1
2015-Mar-18 12:31N 58°22' E 010°26'2 2.0
2015-Mar-18 11:31N 58°20' E 010°27'2 1.9
2015-Mar-18 10:31N 58°18' E 010°28'2 1.9
2015-Mar-18 09:28N 58°16' E 010°27'2 1.9
2015-Mar-18 08:31N 58°15' E 010°25'2 2.0
2015-Mar-18 07:31N 58°15' E 010°21'2 1.9
2015-Mar-18 06:28N 58°15' E 010°17'2 2.0
2015-Mar-18 05:28N 58°14' E 010°14'2 2.0
2015-Mar-18 04:31N 58°13' E 010°11'1 1.5
2015-Mar-18 03:31N 58°14' E 010°09'9 9.4
2015-Mar-18 02:34N 58°22' E 010°16'7 4.7
2015-Mar-18 01:07N 58°28' E 010°22'1 1.9
2015-Mar-18 00:31N 58°27' E 010°23'2 2.0
2015-Mar-17 23:31N 58°25' E 010°24'2 1.9
2015-Mar-17 22:28N 58°23' E 010°25'2 2.0
2015-Mar-17 21:31N 58°21' E 010°25'2 2.0
2015-Mar-17 20:31N 58°19' E 010°25'2 2.0
2015-Mar-17 19:31N 58°17' E 010°24'2 2.0
2015-Mar-17 18:31N 58°16' E 010°22'2 1.9
2015-Mar-17 17:28N 58°15' E 010°19'2 2.0
2015-Mar-17 16:28N 58°15' E 010°15'3 0.6
2015-Mar-17 11:33N 58°13' E 010°19'5 4.6
2015-Mar-17 10:31N 58°15' E 010°27'2 1.8
2015-Mar-17 09:31N 58°15' E 010°24'2 1.9
2015-Mar-17 08:28N 58°15' E 010°20'2 2.0
2015-Mar-17 07:28N 58°15' E 010°16'2 0.3
2015-Mar-16 22:29N 58°14' E 010°12'1 0.5
2015-Mar-16 21:25N 58°13' E 010°12'2 2.0
2015-Mar-16 20:22N 58°12' E 010°08'2 2.0
2015-Mar-16 19:16N 58°11' E 010°05'1 2.0
2015-Mar-16 18:31N 58°10' E 010°03'  
Track history (hours):
 
Tides and Currents Weather Stations Pressure Air Temp Water Temp Dewpoint Dewpoint Depression Visibility Wind Speed Wind Dir Waves Ship Positions

S 386 Casilo

Last reported at 2015-Mar-26 10:08 UTC. Time now 2015-Mar-31 23:52 UTC.
Position N 57°56' E 010°53'.

Length 24 m.

Type: Fishing. MMSI: 219948000.

Date/timePositionNaut miles runAvg speedWind from/ knotsBaromVisibWave heightAir tempDewpointWater temp
2015-Mar-26 10:08N 57°56' E 010°53'4 7.9
2015-Mar-26 09:33N 57°60' E 010°57'8 8.1
2015-Mar-26 08:33N 58°07' E 011°03'8 7.7
2015-Mar-26 07:34N 58°14' E 011°09'7 7.2
2015-Mar-26 06:32N 58°21' E 011°14'4 3.7
2015-Mar-26 05:33N 58°21' E 011°07'7 7.3
2015-Mar-26 04:33N 58°24' E 010°55'7 6.8
2015-Mar-26 03:33N 58°28' E 010°44'7 6.7
2015-Mar-26 02:33N 58°32' E 010°33'1 1.1
2015-Mar-26 01:11N 58°32' E 010°31'2 2.2
2015-Mar-26 00:20N 58°30' E 010°33'2 2.2
2015-Mar-25 23:26N 58°29' E 010°35'2 2.2
2015-Mar-25 22:32N 58°27' E 010°37'2 2.2
2015-Mar-25 21:32N 58°25' E 010°39'2 2.1
2015-Mar-25 20:32N 58°23' E 010°39'2 2.2
2015-Mar-25 19:32N 58°21' E 010°40'2 2.1
2015-Mar-25 18:32N 58°19' E 010°40'2 2.0
2015-Mar-25 17:29N 58°17' E 010°40'1 1.5
2015-Mar-25 16:33N 58°18' E 010°38'9 6.8
2015-Mar-25 15:10N 58°25' E 010°27'6 6.3
2015-Mar-25 14:17N 58°29' E 010°20'1 1.7
2015-Mar-25 13:32N 58°28' E 010°22'2 2.0
2015-Mar-25 12:33N 58°27' E 010°23'1 1.4
2015-Mar-25 11:33N 58°25' E 010°24'2 2.1
2015-Mar-25 10:33N 58°23' E 010°25'2 2.2
2015-Mar-25 09:30N 58°21' E 010°25'2 2.2
2015-Mar-25 08:33N 58°19' E 010°25'2 2.1
2015-Mar-25 07:33N 58°17' E 010°23'2 1.8
2015-Mar-25 06:33N 58°16' E 010°20'2 1.8
2015-Mar-25 05:30N 58°15' E 010°16'3 1.9
2015-Mar-25 04:06N 58°14' E 010°12'5 1.9
2015-Mar-25 01:18N 58°12' E 010°03'2 2.0
2015-Mar-25 00:30N 58°11' E 010°00'1 0.5
2015-Mar-24 23:24N 58°11' E 009°59'7 8.7
2015-Mar-24 22:33N 58°16' E 010°09'9 8.7
2015-Mar-24 21:33N 58°23' E 010°19'3 3.3
2015-Mar-24 20:32N 58°26' E 010°23'2 1.9
2015-Mar-24 19:32N 58°24' E 010°24'2 2.1
2015-Mar-24 18:32N 58°22' E 010°24'2 2.1
2015-Mar-24 17:29N 58°20' E 010°23'2 2.0
2015-Mar-24 16:32N 58°18' E 010°23'2 2.0
2015-Mar-24 15:32N 58°17' E 010°20'2 1.9
2015-Mar-24 14:32N 58°16' E 010°17'3 2.0
2015-Mar-24 13:14N 58°14' E 010°13'2 2.1
2015-Mar-24 12:29N 58°14' E 010°10'2 2.1
2015-Mar-24 11:32N 58°13' E 010°07'2 2.1
2015-Mar-24 10:32N 58°12' E 010°03'2 2.1
2015-Mar-24 09:26N 58°11' E 009°59'2 2.1
2015-Mar-24 08:32N 58°10' E 009°56'5 4.9
2015-Mar-24 07:31N 58°15' E 010°00'9 9.2
2015-Mar-24 06:33N 58°23' E 010°07'9 8.9
2015-Mar-24 05:33N 58°31' E 010°13'8 7.5
2015-Mar-24 04:33N 58°38' E 010°14'6 6.0
2015-Mar-24 03:32N 58°43' E 010°06'2 0.6
2015-Mar-23 23:20N 58°44' E 010°10'2 2.0
2015-Mar-23 22:14N 58°42' E 010°13'2 2.0
2015-Mar-23 21:14N 58°41' E 010°16'8 2.1
2015-Mar-23 17:24N 58°34' E 010°23'4 2.1
2015-Mar-23 15:30N 58°30' E 010°26'4 1.9
2015-Mar-23 13:08N 58°26' E 010°22'0 0.8
2015-Mar-23 12:31N 58°26' E 010°21'2 2.0
2015-Mar-23 11:32N 58°24' E 010°22'2 2.1
2015-Mar-23 10:25N 58°21' E 010°23'2 2.0
2015-Mar-23 09:32N 58°20' E 010°23'2 1.9
2015-Mar-23 08:29N 58°18' E 010°22'2 2.0
2015-Mar-23 07:32N 58°17' E 010°19'2 2.1
2015-Mar-23 06:26N 58°15' E 010°15'2 2.1
2015-Mar-23 05:26N 58°14' E 010°12'  
2015-Mar-19 10:22N 57°43' E 010°36'0 0.2
2015-Mar-19 09:28N 57°43' E 010°36'0 0.0
2015-Mar-19 08:13N 57°43' E 010°36'0 0.0
2015-Mar-19 07:22N 57°43' E 010°36'3 1.7
2015-Mar-19 05:33N 57°43' E 010°41'8 8.3
2015-Mar-19 04:33N 57°50' E 010°50'9 8.6
2015-Mar-19 03:33N 57°58' E 010°58'3 2.9
2015-Mar-19 02:31N 58°01' E 010°59'3 2.3
2015-Mar-19 01:19N 58°04' E 010°59'2 2.3
2015-Mar-19 00:31N 58°05' E 010°59'2 2.3
2015-Mar-18 23:31N 58°08' E 010°59'2 2.3
2015-Mar-18 22:28N 58°10' E 010°56'2 2.3
2015-Mar-18 21:31N 58°12' E 010°54'2 2.4
2015-Mar-18 20:31N 58°14' E 010°52'2 2.5
2015-Mar-18 19:31N 58°16' E 010°49'4 3.8
2015-Mar-18 18:33N 58°18' E 010°44'9 8.8
2015-Mar-18 17:33N 58°24' E 010°31'7 6.6
2015-Mar-18 16:28N 58°29' E 010°22'1 1.3
2015-Mar-18 15:31N 58°28' E 010°23'2 2.1
2015-Mar-18 14:31N 58°26' E 010°24'3 2.1
2015-Mar-18 13:19N 58°24' E 010°25'2 2.1
2015-Mar-18 12:31N 58°22' E 010°26'2 2.0
2015-Mar-18 11:31N 58°20' E 010°27'2 1.9
2015-Mar-18 10:31N 58°18' E 010°28'2 1.9
2015-Mar-18 09:28N 58°16' E 010°27'2 1.9
2015-Mar-18 08:31N 58°15' E 010°25'2 2.0
2015-Mar-18 07:31N 58°15' E 010°21'2 1.9
2015-Mar-18 06:28N 58°15' E 010°17'2 2.0
2015-Mar-18 05:28N 58°14' E 010°14'2 2.0
2015-Mar-18 04:31N 58°13' E 010°11'1 1.5
2015-Mar-18 03:31N 58°14' E 010°09'9 9.4
2015-Mar-18 02:34N 58°22' E 010°16'7 4.7
2015-Mar-18 01:07N 58°28' E 010°22'1 1.9
2015-Mar-18 00:31N 58°27' E 010°23'2 2.0
2015-Mar-17 23:31N 58°25' E 010°24'2 1.9
2015-Mar-17 22:28N 58°23' E 010°25'2 2.0
2015-Mar-17 21:31N 58°21' E 010°25'2 2.0
2015-Mar-17 20:31N 58°19' E 010°25'2 2.0
2015-Mar-17 19:31N 58°17' E 010°24'2 2.0
2015-Mar-17 18:31N 58°16' E 010°22'2 1.9
2015-Mar-17 17:28N 58°15' E 010°19'2 2.0
2015-Mar-17 16:28N 58°15' E 010°15'3 0.6
2015-Mar-17 11:33N 58°13' E 010°19'5 4.6
2015-Mar-17 10:31N 58°15' E 010°27'2 1.8
2015-Mar-17 09:31N 58°15' E 010°24'2 1.9
2015-Mar-17 08:28N 58°15' E 010°20'2 2.0
2015-Mar-17 07:28N 58°15' E 010°16'2 0.3
2015-Mar-16 22:29N 58°14' E 010°12'1 0.5
2015-Mar-16 21:25N 58°13' E 010°12'2 2.0
2015-Mar-16 20:22N 58°12' E 010°08'2 2.0
2015-Mar-16 19:16N 58°11' E 010°05'1 2.0
2015-Mar-16 18:31N 58°10' E 010°03'  

Dump ship's entire track history